Date,TemperatureHighF,TemperatureAvgF,TemperatureLowF,DewpointHighF,DewpointAvgF,DewpointLowF,HumidityHigh,HumidityAvg,HumidityLow,PressureMaxIn,PressureMinIn,WindSpeedMaxMPH,WindSpeedAvgMPH,GustSpeedMaxMPH,PrecipitationSumIn
2014-1-1,53.8,44.2,36.7,42.4,39.8,36.1,99,85,62,30.33,30.22,5,0,5,0.00
2014-1-2,55.9,45.2,38.9,46.0,41.0,36.5,98,86,68,30.24,30.11,4,0,5,0.00
2014-1-3,49.5,42.7,29.8,45.7,40.8,29.0,99,93,80,30.30,30.14,4,0,4,0.12
2014-1-4,49.6,38.2,27.0,35.5,31.5,26.5,99,79,52,30.34,30.25,7,0,9,0.01
2014-1-5,56.1,45.4,38.8,31.4,28.8,26.6,73,54,34,30.31,30.17,7,0,9,0.00
2014-1-6,47.2,43.0,36.5,41.5,34.0,27.7,96,71,54,30.26,30.14,3,0,3,0.06
2014-1-7,50.1,47.0,43.3,48.6,44.9,41.3,98,93,72,30.14,30.06,7,0,8,0.33
2014-1-8,50.8,48.9,46.4,50.0,48.2,45.3,99,97,95,30.12,29.94,13,1,15,0.56
2014-1-9,49.2,47.3,45.8,48.4,46.4,44.5,99,97,95,30.20,30.05,12,1,16,0.44
2014-1-10,54.2,50.1,48.4,51.6,48.9,47.6,98,96,89,30.24,29.87,9,0,15,0.13
2014-1-11,53.8,49.3,44.3,51.5,46.4,41.6,97,90,76,30.20,29.78,18,3,23,0.63
2014-1-12,50.1,48.6,47.1,49.3,47.3,44.2,98,95,87,30.58,30.20,9,1,9,0.30
2014-1-13,54.5,47.3,39.2,50.6,45.7,38.7,99,95,74,30.69,30.57,3,0,4,0.01
2014-1-14,56.6,47.7,41.6,43.6,41.3,39.8,97,79,58,30.61,30.50,6,0,11,0.00
2014-1-15,57.7,47.2,41.1,40.8,37.8,35.5,86,71,48,30.51,30.36,8,0,8,0.00
2014-1-16,58.1,45.5,38.5,35.5,33.0,29.2,78,63,39,30.38,30.18,8,1,9,0.00
2014-1-17,62.6,47.5,37.5,41.8,36.3,31.7,95,67,43,30.19,30.13,7,0,8,0.00
2014-1-18,50.5,42.3,31.2,44.7,39.0,30.4,98,89,78,30.27,30.14,6,0,6,0.00
2014-1-19,55.1,41.3,32.5,45.1,37.2,31.2,98,86,61,30.22,30.12,4,0,4,0.00
2014-1-20,59.4,46.5,39.8,41.1,37.0,34.4,81,70,49,30.25,30.15,5,0,10,0.00
2014-1-21,49.7,42.8,33.8,44.4,39.2,31.9,95,87,77,30.38,30.23,5,0,6,0.00
2014-1-22,57.1,46.3,34.9,48.6,42.2,33.9,98,86,67,30.37,30.24,4,0,7,0.00
2014-1-23,60.4,48.2,34.9,40.6,36.8,30.9,98,67,44,30.24,30.08,8,0,12,0.00
2014-1-24,63.8,52.8,41.4,36.0,30.3,26.8,80,44,28,30.32,30.17,9,1,14,0.00
2014-1-25,64.3,47.7,39.7,37.1,34.2,29.5,84,62,33,30.33,30.20,6,0,6,0.00
2014-1-26,64.9,45.9,37.3,44.5,37.1,32.8,97,74,37,30.22,30.04,6,0,7,0.00
2014-1-27,49.5,43.3,36.8,43.3,40.0,36.0,98,89,73,30.20,30.10,4,0,4,0.01
2014-1-28,52.9,47.8,44.6,52.4,46.0,41.1,99,94,86,30.21,30.02,12,0,14,1.24
2014-1-29,51.8,48.7,43.5,51.2,47.8,42.4,98,97,93,30.06,29.97,14,1,17,0.86
2014-1-30,50.8,44.0,37.7,44.8,40.7,35.6,99,89,61,30.08,30.02,4,0,6,0.03
2014-1-31,48.5,41.9,37.9,45.3,40.7,37.4,98,96,84,30.20,30.08,2,0,4,0.50
2014-2-1,53.2,42.2,35.2,44.1,38.6,34.9,99,88,62,30.21,29.97,3,0,5,0.00
2014-2-2,53.1,43.9,37.5,42.8,39.0,35.4,96,83,61,30.05,29.95,5,0,8,0.00
2014-2-3,46.9,39.0,32.7,41.2,36.7,32.0,99,92,69,30.17,30.05,7,0,7,0.15
2014-2-4,44.5,38.8,34.8,41.0,36.9,34.3,98,93,74,30.24,30.16,2,0,2,0.07
2014-2-5,42.3,34.9,30.1,34.9,26.8,19.2,95,73,57,30.28,30.03,7,0,9,0.00
2014-2-6,46.4,32.0,25.7,42.6,26.4,16.2,98,81,61,30.04,29.67,10,1,13,0.05
2014-2-7,37.9,35.2,33.1,36.1,34.4,32.3,98,97,92,29.85,29.54,4,0,7,1.23
2014-2-8,52.0,41.7,36.4,51.7,41.1,35.6,99,98,95,29.99,29.63,20,1,23,1.01
2014-2-9,55.4,46.5,40.8,51.2,45.4,40.3,99,96,84,30.08,29.98,5,0,5,0.06
2014-2-10,51.3,46.1,38.1,50.7,45.6,37.8,99,98,97,30.24,30.08,9,0,11,0.22
2014-2-11,52.9,50.0,48.5,51.1,48.8,47.4,98,96,92,30.23,29.84,12,1,17,1.38
2014-2-12,51.7,51.1,50.2,51.4,50.5,49.1,99,98,95,30.04,29.83,20,2,22,1.48
2014-2-13,55.7,51.5,47.9,53.1,49.7,47.4,99,94,78,30.19,29.79,12,0,12,0.58
2014-2-14,53.4,51.0,47.8,52.5,50.2,47.2,98,97,93,30.02,29.82,12,1,17,0.64
2014-2-15,54.5,49.0,41.5,53.3,47.8,39.5,99,96,83,29.91,29.47,17,1,25,1.28
2014-2-16,53.3,48.1,41.7,47.2,41.9,37.6,94,80,63,30.13,29.90,15,2,16,0.16
2014-2-17,52.5,49.4,46.3,49.9,47.7,43.8,98,94,82,30.08,29.89,17,1,20,0.75
2014-2-18,52.8,47.9,36.8,50.7,46.3,36.0,98,94,82,30.11,29.86,25,1,25,0.76
2014-2-19,50.1,43.5,36.8,44.6,41.0,36.3,99,91,66,30.31,30.11,9,0,10,0.36
2014-2-20,49.8,47.4,45.2,49.1,46.7,43.6,99,97,92,30.32,30.28,6,0,8,0.55
2014-2-21,53.3,45.8,34.2,48.7,44.0,33.4,99,94,78,30.32,30.23,4,0,5,0.01
2014-2-22,56.8,43.2,34.9,45.3,39.2,34.3,99,87,52,30.23,30.05,5,0,6,0.00
2014-2-23,50.3,43.2,35.6,48.3,41.5,34.9,99,94,82,30.06,30.00,5,0,5,0.11
2014-2-24,61.9,52.3,45.6,54.6,48.5,43.9,98,88,59,30.03,29.93,4,0,4,0.01
2014-2-25,63.2,53.2,43.9,51.8,48.1,41.8,99,84,64,29.96,29.85,8,0,8,0.00
2014-2-26,60.1,48.5,43.5,48.1,41.4,37.1,94,77,62,29.87,29.59,6,0,8,0.04
2014-2-27,60.5,49.7,43.5,52.3,46.4,39.2,98,89,70,29.73,29.59,6,0,8,0.12
2014-2-28,58.4,50.9,46.3,49.2,46.8,44.6,98,86,68,29.66,29.38,7,0,9,0.03
2014-3-1,54.2,50.8,48.4,52.4,49.4,47.4,98,95,87,29.76,29.48,8,0,10,0.36
2014-3-2,53.6,51.5,49.1,51.8,50.4,48.3,98,96,93,29.90,29.71,17,2,17,0.43
2014-3-3,55.2,52.1,50.0,53.3,51.0,49.4,99,96,91,30.02,29.80,13,1,13,0.17
2014-3-4,61.4,53.9,49.5,55.4,51.7,49.0,99,93,77,30.06,29.85,6,0,8,0.15
2014-3-5,57.9,55.6,52.5,56.6,54.2,50.6,98,95,85,29.86,29.55,18,2,24,2.24
2014-3-6,54.7,52.3,48.0,51.3,49.8,46.6,96,91,82,30.22,29.67,15,2,26,0.29
2014-3-7,61.0,51.7,44.3,50.8,46.9,42.9,98,85,60,30.28,30.10,5,0,7,0.01
2014-3-8,61.0,52.1,43.8,56.3,49.2,43.0,98,91,58,30.14,29.89,14,1,14,0.79
2014-3-9,53.7,52.2,49.7,52.9,51.6,49.1,99,98,96,30.09,29.98,11,1,16,0.77
2014-3-10,54.4,48.6,39.0,49.4,45.0,38.1,99,88,70,30.52,30.07,10,1,10,0.08
2014-3-11,63.7,47.2,33.5,45.7,39.1,33.0,99,77,37,30.54,30.32,6,0,6,0.01
2014-3-12,67.8,52.4,39.6,45.6,40.0,34.7,95,66,30,30.32,30.16,8,1,8,0.00
2014-3-13,57.5,46.1,33.7,48.4,42.5,33.2,99,88,65,30.18,30.11,8,0,9,0.00
2014-3-14,57.9,51.0,45.6,52.8,48.4,44.6,98,91,70,30.33,30.12,7,0,7,0.25
2014-3-15,60.6,50.1,39.2,54.2,47.7,38.7,99,92,76,30.38,30.28,8,0,9,0.00
2014-3-16,57.7,51.1,42.8,50.9,47.7,41.6,97,88,73,30.38,30.04,15,1,22,0.60
2014-3-17,52.3,45.6,40.1,42.3,37.6,32.3,97,75,50,30.44,30.22,11,0,11,0.08
2014-3-18,56.2,44.2,32.3,46.3,39.0,31.2,98,83,54,30.42,30.17,9,0,9,0.00
2014-3-19,53.8,44.0,36.5,47.4,41.5,36.0,99,91,71,30.32,30.15,7,0,7,0.08
2014-3-20,53.4,43.1,33.9,43.4,37.6,33.1,99,83,55,30.39,30.30,9,0,9,0.01
2014-3-21,52.9,41.1,30.1,40.4,34.9,29.3,99,80,50,30.32,30.21,8,0,11,0.00
2014-3-22,57.1,43.0,31.1,42.4,36.0,30.3,99,79,48,30.29,30.20,11,0,11,0.01
2014-3-23,60.3,44.5,30.5,43.6,36.9,29.7,98,78,44,30.30,30.15,8,0,9,0.00
2014-3-24,65.0,52.7,40.1,46.6,40.4,33.0,96,65,32,30.15,29.90,13,1,20,0.00
2014-3-25,57.0,51.0,46.7,52.0,46.8,38.7,95,86,60,29.90,29.68,14,1,17,0.48
2014-3-26,54.1,49.1,46.1,50.4,46.7,44.3,96,92,82,29.68,29.58,12,1,15,0.61
2014-3-27,55.7,49.9,45.5,49.9,47.3,42.8,96,91,79,29.94,29.65,15,2,15,0.71
2014-3-28,53.7,51.2,48.3,52.5,50.1,46.9,97,96,94,29.90,29.77,14,1,20,1.04
2014-3-29,56.4,51.3,47.7,51.5,47.9,43.1,96,88,75,29.99,29.83,15,2,16,0.17
2014-3-30,55.1,47.4,41.0,46.9,42.8,39.6,98,85,62,30.05,29.92,9,1,13,0.12
2014-3-31,54.1,45.6,40.4,46.8,41.6,37.3,97,86,59,29.92,29.69,11,0,11,0.27
2014-4-1,57.4,46.3,38.0,46.1,40.9,36.7,98,83,55,29.98,29.75,6,0,7,0.00
2014-4-2,55.0,44.9,35.5,47.3,41.3,34.9,99,88,67,30.09,29.98,7,0,7,0.00
2014-4-3,55.9,48.6,43.8,47.9,44.7,42.1,97,87,62,30.06,29.99,12,0,13,0.51
2014-4-4,56.4,49.0,43.4,48.5,44.7,39.8,99,86,56,30.04,30.00,7,1,9,0.27
2014-4-5,52.3,50.7,48.5,50.5,49.4,47.4,98,95,89,30.22,30.03,12,1,13,0.34
2014-4-6,59.9,52.8,50.0,54.2,51.2,49.1,99,94,78,30.36,30.22,9,1,12,0.19
2014-4-7,65.6,52.3,47.6,55.7,50.0,46.5,98,92,69,30.31,30.20,7,0,7,0.00
2014-4-8,59.5,51.0,45.3,52.6,48.5,44.5,98,91,76,30.24,30.14,8,0,10,0.01
2014-4-9,59.2,52.3,41.8,51.9,47.3,40.1,98,84,64,30.23,30.15,10,1,11,0.00
2014-4-10,60.4,48.8,36.7,45.9,42.1,35.8,99,79,51,30.23,30.08,10,0,11,0.00
2014-4-11,59.5,49.2,36.2,49.1,43.9,35.4,98,83,62,30.14,30.00,10,1,12,0.00
2014-4-12,56.9,47.0,35.5,47.5,42.3,34.7,99,85,61,30.13,30.04,12,1,12,0.00
2014-4-13,78.6,56.6,36.7,47.9,40.3,32.9,99,64,20,30.18,30.04,7,0,7,0.01
2014-4-14,58.3,50.1,41.2,50.5,45.6,39.4,95,85,69,30.28,30.06,9,1,14,0.00
2014-4-15,56.6,48.8,39.5,46.1,43.0,37.8,97,81,62,30.29,30.18,10,0,10,0.00
2014-4-16,57.7,50.5,42.5,48.8,45.7,40.9,96,84,65,30.21,30.02,6,0,6,0.00
2014-4-17,55.8,50.3,43.7,54.3,48.9,42.6,97,95,91,30.09,29.93,8,0,13,0.40
2014-4-18,64.4,50.9,40.9,49.3,44.4,40.3,99,81,42,30.14,29.87,6,0,7,0.01
2014-4-19,58.7,50.3,42.7,52.4,46.6,41.0,97,87,75,30.27,29.87,15,1,15,0.08
2014-4-20,58.6,49.9,40.9,49.2,44.2,40.2,99,82,58,30.30,30.15,7,0,8,0.00
2014-4-21,59.9,49.5,42.9,49.4,45.2,41.1,96,86,56,30.16,29.95,7,0,8,0.72
2014-4-22,55.9,47.8,40.7,47.9,44.2,39.3,98,88,63,30.05,29.97,11,1,13,0.38
2014-4-23,52.8,49.9,45.8,51.8,48.7,44.7,97,96,93,30.04,29.81,14,1,14,1.00
2014-4-24,56.7,51.5,45.0,52.3,48.4,43.5,98,90,73,29.99,29.79,16,1,19,0.71
2014-4-25,55.7,47.4,39.6,46.9,42.5,38.1,98,84,61,29.94,29.89,7,0,9,0.52
2014-4-26,55.7,46.0,37.0,47.3,41.6,36.2,98,86,62,29.94,29.78,15,1,15,0.30
2014-4-27,55.4,50.5,45.1,47.9,45.2,39.6,96,82,63,30.21,29.82,11,1,11,0.06
2014-4-28,66.2,52.2,40.9,48.4,43.9,38.9,98,76,39,30.35,30.21,7,0,8,0.00
2014-4-29,82.4,61.8,41.9,55.0,47.6,40.5,97,65,29,30.40,30.21,6,0,7,0.00
2014-4-30,93.5,74.2,60.3,55.5,44.3,34.8,81,40,13,30.22,29.97,10,1,11,0.00
2014-5-1,81.4,65.6,53.4,53.9,48.1,34.2,91,60,19,30.15,29.99,5,0,8,0.00
2014-5-2,58.4,55.0,50.7,54.3,51.6,47.6,94,88,82,30.15,30.05,5,0,6,0.01
2014-5-3,59.3,54.6,51.9,52.0,50.4,48.6,95,86,69,30.05,29.83,13,1,14,0.27
2014-5-4,57.7,53.4,50.7,53.2,50.9,49.1,96,91,79,30.00,29.86,9,1,12,0.47
2014-5-5,58.4,52.5,46.8,51.1,47.6,42.3,98,84,58,30.11,29.99,7,1,8,0.11
2014-5-6,58.5,51.9,45.1,51.3,45.9,42.6,98,81,60,30.13,30.07,6,0,8,0.02
2014-5-7,58.4,50.1,41.2,48.1,44.4,39.8,96,82,59,30.09,29.95,6,0,7,0.00
2014-5-8,54.8,51.5,47.5,53.9,50.3,46.0,98,96,86,29.97,29.79,9,1,11,0.95
2014-5-9,56.8,51.7,48.2,52.5,48.6,44.1,96,89,74,30.13,29.97,10,1,10,0.60
2014-5-10,58.1,51.9,44.7,49.9,46.7,43.1,97,83,63,30.33,30.12,7,1,7,0.22
2014-5-11,63.1,52.1,40.8,50.2,46.0,40.0,98,81,56,30.34,30.22,6,0,7,0.00
2014-5-12,74.5,58.8,43.3,53.0,46.3,40.4,99,69,33,30.28,30.17,4,0,7,0.00
2014-5-13,82.7,65.0,47.7,54.1,46.4,40.2,96,58,26,30.25,30.14,5,0,7,0.00
2014-5-14,96.0,69.7,50.3,54.1,50.1,45.5,94,57,20,30.18,30.05,5,0,6,0.00
2014-5-15,67.1,58.4,52.5,56.9,52.6,50.1,93,81,59,30.16,30.05,7,0,8,0.00
2014-5-16,63.2,58.2,53.0,54.8,51.7,48.9,91,79,62,30.18,30.13,6,1,6,0.00
2014-5-17,64.3,58.2,53.5,54.3,51.1,48.6,95,78,60,30.13,29.92,7,0,7,0.05
2014-5-18,61.8,55.9,52.0,55.6,52.3,50.3,96,88,69,29.97,29.90,8,1,9,0.78
2014-5-19,62.6,55.9,49.4,55.7,51.1,47.7,97,85,62,30.06,29.93,6,0,7,0.27
2014-5-20,64.3,55.0,45.7,55.6,50.0,44.9,98,84,69,30.18,30.06,11,1,11,0.00
2014-5-21,63.6,54.7,43.2,52.6,48.7,42.1,98,81,62,30.19,30.10,8,0,9,0.00
2014-5-22,71.2,57.6,48.2,56.8,52.6,46.9,97,84,54,30.11,29.99,6,0,8,0.00
2014-5-23,65.8,57.1,53.4,59.4,54.5,51.4,98,91,66,30.19,30.05,4,0,6,0.04
2014-5-24,66.4,57.9,51.3,54.2,51.3,48.1,92,79,56,30.20,30.12,8,0,9,0.00
2014-5-25,65.2,55.4,46.8,54.2,50.7,45.7,98,85,61,30.16,30.06,7,1,11,0.00
2014-5-26,63.4,56.9,46.5,54.8,50.4,44.3,97,80,54,30.23,30.12,7,0,8,0.12
2014-5-27,60.9,52.8,42.2,51.7,47.0,41.2,98,82,59,30.20,30.17,6,1,8,0.00
2014-5-28,61.3,52.7,44.5,54.9,48.7,43.3,97,87,67,30.28,30.17,4,0,6,0.45
2014-5-29,65.4,54.9,46.4,52.9,48.2,44.4,98,80,57,30.28,30.10,8,0,9,0.00
2014-5-30,64.0,53.7,41.6,53.4,48.1,40.5,98,82,59,30.11,29.99,9,1,11,0.00
2014-5-31,65.5,56.1,44.1,54.2,49.8,43.0,98,80,62,30.13,30.06,9,1,10,0.00
2014-6-1,64.1,56.9,50.0,53.5,51.0,47.9,94,81,64,30.13,29.98,9,0,9,0.00
2014-6-2,63.6,55.3,44.2,53.4,49.6,43.1,98,82,64,30.00,29.94,11,1,11,0.00
2014-6-3,64.0,57.0,48.2,53.1,49.9,45.9,93,77,63,30.12,30.00,7,0,8,0.00
2014-6-4,64.7,54.3,41.1,53.6,47.8,40.3,98,80,63,30.15,30.08,8,1,9,0.00
2014-6-5,64.5,53.7,40.4,50.6,46.2,39.0,98,77,58,30.14,30.06,8,1,10,0.00
2014-6-6,63.9,53.1,37.9,52.4,46.3,36.6,97,79,61,30.12,30.06,10,1,13,0.00
2014-6-7,65.2,55.2,44.2,55.0,50.2,42.8,98,84,66,30.19,30.10,12,1,13,0.00
2014-6-8,66.5,55.8,45.7,56.7,51.5,44.6,98,86,67,30.22,30.10,8,0,9,0.00
2014-6-9,64.3,56.3,46.7,54.6,50.1,45.7,98,80,64,30.16,30.08,9,1,10,0.00
2014-6-10,65.4,55.2,42.5,51.2,47.6,41.2,98,77,55,30.14,30.05,7,0,7,0.00
2014-6-11,67.9,56.1,44.5,56.2,50.8,43.4,98,83,61,30.06,29.92,8,0,9,0.00
2014-6-12,61.1,56.0,53.3,55.2,52.0,49.6,96,86,76,30.03,29.91,13,1,13,0.10
2014-6-13,59.4,55.0,53.0,55.8,52.0,50.1,97,90,74,30.23,30.03,4,0,5,0.12
2014-6-14,65.9,57.6,51.8,54.3,51.1,49.2,96,80,59,30.22,30.04,8,0,8,0.00
2014-6-15,62.3,55.6,50.3,55.6,50.8,47.9,95,84,64,30.04,29.96,7,0,7,0.02
2014-6-16,61.4,54.5,49.2,52.3,49.7,47.0,96,84,62,30.10,29.97,6,0,6,0.05
2014-6-17,66.2,55.6,47.8,53.9,50.0,45.8,97,83,58,30.20,30.10,6,0,7,0.03
2014-6-18,65.4,55.6,43.9,52.3,48.1,42.8,98,78,56,30.18,30.04,7,0,8,0.00
2014-6-19,66.0,56.1,44.6,56.8,51.6,43.5,98,85,68,30.13,30.04,5,0,5,0.00
2014-6-20,66.4,58.6,48.5,55.5,50.9,45.4,96,77,50,30.19,30.11,8,0,8,0.05
2014-6-21,65.8,55.3,43.4,52.2,48.0,42.3,97,78,52,30.13,30.02,7,0,9,0.00
2014-6-22,69.3,56.5,44.9,55.4,50.4,43.8,97,81,57,30.09,29.98,8,0,8,0.00
2014-6-23,65.6,57.7,49.6,57.8,53.9,48.2,97,87,70,30.13,30.02,6,0,6,0.00
2014-6-24,70.8,61.0,53.6,60.5,56.6,52.1,97,86,67,30.14,30.04,6,0,6,0.00
2014-6-25,61.9,58.0,55.7,59.4,56.8,54.8,97,96,90,30.05,29.86,3,0,3,0.53
2014-6-26,63.7,58.6,56.1,59.1,56.8,55.1,98,94,83,29.93,29.85,6,0,9,0.30
2014-6-27,62.3,58.5,56.2,59.8,57.2,55.0,98,96,88,30.00,29.80,6,1,8,0.50
2014-6-28,67.3,60.8,57.3,60.6,57.7,56.4,98,90,74,30.12,29.98,6,0,8,0.21
2014-6-29,68.9,62.0,54.0,59.3,55.6,51.7,97,81,60,30.21,30.11,6,0,7,0.00
2014-6-30,73.9,62.2,48.0,59.7,54.7,47.2,99,78,56,30.16,29.89,5,0,5,0.00
2014-7-1,72.9,61.9,50.6,63.1,57.2,49.5,98,85,60,29.93,29.80,6,0,6,0.00
2014-7-2,69.1,62.6,57.5,60.9,57.6,55.4,96,85,66,30.07,29.93,9,1,9,0.00
2014-7-3,67.8,62.2,55.2,58.1,54.2,51.0,91,75,61,30.11,30.05,8,0,10,0.00
2014-7-4,68.8,59.6,51.2,56.2,53.1,49.5,96,80,58,30.08,30.02,8,0,9,0.00
2014-7-5,71.3,60.3,50.5,59.4,55.1,49.4,98,84,64,30.14,30.08,6,0,9,0.00
2014-7-6,70.8,63.0,55.7,61.3,58.7,54.5,97,86,70,30.18,30.09,9,1,9,0.00
2014-7-7,71.2,62.8,57.1,62.8,59.0,55.6,98,88,72,30.11,29.98,10,1,10,0.00
2014-7-8,67.5,60.5,55.0,59.3,56.4,53.3,97,87,73,30.03,29.98,8,0,10,0.00
2014-7-9,67.5,59.4,50.1,57.4,53.9,49.0,98,83,68,30.04,29.94,10,1,10,0.00
2014-7-10,66.8,57.8,46.0,56.9,52.6,45.1,99,83,67,29.97,29.87,9,0,11,0.00
2014-7-11,60.5,56.0,52.9,56.0,53.9,51.2,97,93,84,30.09,29.92,4,0,4,0.00
2014-7-12,62.5,57.4,53.5,57.2,55.1,52.6,98,92,80,30.15,30.08,5,0,5,0.01
2014-7-13,62.1,58.2,55.2,58.3,56.6,54.3,98,95,86,30.17,30.11,6,0,7,0.02
2014-7-14,68.8,61.1,52.7,61.6,57.2,51.3,98,88,73,30.17,30.06,12,0,12,0.01
2014-7-15,67.2,58.7,52.8,57.8,54.7,51.6,98,87,69,30.09,29.96,8,0,8,0.00
2014-7-16,68.2,59.4,53.4,59.4,55.3,52.3,97,87,71,30.07,29.99,8,1,11,0.00
2014-7-17,70.5,61.4,53.7,58.0,54.9,50.4,95,80,63,30.09,30.01,8,0,8,0.00
2014-7-18,71.3,59.0,45.2,56.5,52.5,44.3,99,80,57,30.11,30.05,7,0,9,0.00
2014-7-19,77.6,64.3,51.3,63.5,57.7,50.1,98,81,57,30.10,29.99,7,0,7,0.00
2014-7-20,68.8,61.9,53.4,59.3,55.8,50.5,97,81,59,30.00,29.95,9,1,9,0.00
2014-7-21,72.1,60.1,51.3,56.1,52.8,49.9,97,79,52,30.07,29.99,4,0,5,0.00
2014-7-22,66.5,59.3,55.5,58.3,54.8,52.6,93,85,72,30.08,30.03,6,0,6,0.00
2014-7-23,65.2,58.6,55.1,58.5,55.6,53.7,98,90,75,30.22,30.05,9,0,11,0.96
2014-7-24,68.9,61.0,53.6,59.4,56.2,51.4,96,85,65,30.29,30.17,6,0,6,0.03
2014-7-25,68.9,59.4,49.1,57.8,53.2,48.3,98,81,60,30.17,30.05,8,0,9,0.00
2014-7-26,69.5,59.4,48.6,59.0,54.1,47.8,98,84,66,30.13,30.06,8,0,11,0.00
2014-7-27,71.7,60.2,49.5,60.4,55.1,48.7,98,84,64,30.10,30.03,5,0,8,0.00
2014-7-28,67.7,58.6,50.6,58.6,54.5,49.5,98,87,68,30.10,30.04,8,0,8,0.00
2014-7-29,66.9,59.1,53.4,59.7,55.3,52.0,97,88,72,30.15,30.07,8,0,9,0.00
2014-7-30,69.9,59.8,52.7,59.4,55.0,50.5,98,85,63,30.13,30.01,6,0,11,0.00
2014-7-31,70.1,58.8,48.1,58.4,53.3,47.0,98,83,63,30.08,29.98,6,0,7,0.00
2014-8-1,68.0,60.4,52.5,59.6,55.9,51.1,97,86,70,30.04,29.97,6,0,9,0.00
2014-8-2,68.3,60.3,54.6,59.4,56.0,52.9,96,86,71,30.05,30.00,8,0,10,0.00
2014-8-3,69.1,60.2,52.5,59.4,56.0,51.1,97,87,69,30.05,29.93,6,0,8,0.00
2014-8-4,67.2,60.3,55.7,59.1,56.6,53.9,96,88,73,30.06,29.97,7,0,9,0.00
2014-8-5,71.5,61.4,53.7,60.0,56.2,51.9,96,84,64,30.14,30.05,7,0,9,0.00
2014-8-6,72.0,61.5,54.1,61.4,56.9,52.7,97,86,68,30.16,30.05,5,0,7,0.00
2014-8-7,69.0,59.5,50.1,57.5,53.3,49.1,98,81,61,30.10,30.04,10,1,11,0.00
2014-8-8,69.4,58.9,46.7,56.2,52.4,45.6,98,81,59,30.13,30.05,9,0,10,0.00
2014-8-9,68.8,59.0,47.2,56.9,52.6,46.1,98,80,62,30.12,30.00,6,0,7,0.00
2014-8-10,72.8,58.4,46.1,57.3,52.0,45.0,97,81,53,30.05,29.90,3,0,5,0.00
2014-8-11,66.9,57.1,49.9,58.3,53.4,48.2,97,88,72,29.97,29.90,5,0,6,0.00
2014-8-12,59.9,56.7,54.7,59.0,55.7,53.8,98,96,91,29.98,29.89,4,0,6,0.08
2014-8-13,72.1,62.2,56.0,61.8,58.4,55.1,98,88,68,30.06,29.96,8,0,8,0.00
2014-8-14,67.8,61.9,57.8,63.3,60.0,56.6,98,94,81,30.05,29.99,4,0,5,0.05
2014-8-15,71.3,63.3,57.2,63.0,60.0,55.5,98,90,71,30.08,29.99,3,0,4,0.02
2014-8-16,73.7,63.3,54.8,63.8,58.3,53.9,98,85,64,30.09,30.02,5,0,8,0.00
2014-8-17,70.1,59.9,54.3,60.6,55.7,53.4,98,86,69,30.10,30.00,7,0,8,0.00
2014-8-18,66.5,58.7,51.2,58.1,54.8,50.1,97,87,73,30.01,29.84,6,0,7,0.00
2014-8-19,70.3,62.1,54.3,61.7,58.2,53.1,98,88,73,29.92,29.87,10,1,11,0.00
2014-8-20,72.4,61.8,50.5,60.3,55.6,48.6,97,81,57,30.03,29.92,7,0,8,0.00
2014-8-21,70.8,58.1,46.0,56.2,51.7,45.2,99,81,49,30.06,29.99,6,0,7,0.00
2014-8-22,70.3,61.6,53.0,61.5,57.1,51.0,97,86,68,30.06,29.99,7,0,9,0.00
2014-8-23,73.6,58.2,47.1,58.9,52.7,46.3,98,83,56,30.09,29.97,5,0,6,0.00
2014-8-24,69.9,57.5,44.8,59.9,53.2,43.8,99,86,66,30.00,29.89,7,0,10,0.00
2014-8-25,77.5,60.9,48.3,58.7,53.1,47.5,98,78,46,29.96,29.88,4,0,6,0.00
2014-8-26,73.5,58.0,46.9,58.0,52.5,45.7,98,83,56,30.03,29.94,6,0,7,0.00
2014-8-27,68.0,58.9,52.4,59.3,55.4,51.3,97,89,72,30.08,30.01,6,0,7,0.00
2014-8-28,72.8,60.9,54.4,61.1,57.1,53.3,97,88,65,30.13,30.03,7,0,8,0.00
2014-8-29,66.0,60.2,55.3,60.8,57.9,54.2,98,92,80,30.04,29.98,5,0,5,0.00
2014-8-30,68.4,62.1,55.8,63.2,59.7,54.6,97,92,79,30.04,29.96,5,0,5,0.15
2014-8-31,70.7,62.2,54.7,60.2,57.2,50.8,98,85,51,30.10,30.04,5,0,5,0.00
2014-9-1,74.3,61.8,50.1,60.8,55.2,49.3,98,81,55,30.08,29.95,6,0,9,0.00
2014-9-2,71.9,60.7,51.5,60.4,55.2,50.6,98,84,54,30.03,29.94,7,0,8,0.00
2014-9-3,69.3,58.1,48.0,57.3,50.6,47.3,99,78,51,30.11,30.01,9,0,10,0.00
2014-9-4,77.9,58.0,43.4,55.9,49.4,42.6,99,77,42,30.03,29.86,5,0,6,0.00
2014-9-5,97.2,65.9,49.3,51.4,47.1,37.3,95,62,14,29.91,29.82,5,0,7,0.00
2014-9-6,58.0,52.7,49.4,52.8,50.6,48.6,97,92,81,29.96,29.90,5,0,5,0.00
2014-9-7,60.7,54.7,52.3,54.1,51.9,50.9,97,91,77,29.95,29.90,4,0,4,0.00
2014-9-8,70.7,59.2,52.2,59.8,54.7,50.7,95,86,66,30.01,29.90,10,0,10,0.00
2014-9-9,68.5,59.5,50.9,57.0,53.9,49.2,98,83,63,30.15,30.01,7,0,9,0.00
2014-9-10,70.0,55.4,45.0,56.9,50.7,43.8,99,86,58,30.15,30.02,6,0,7,0.00
2014-9-11,89.0,66.4,46.4,51.7,43.5,37.1,99,55,17,30.03,29.86,8,0,10,0.00
2014-9-12,80.8,60.9,46.4,51.9,44.2,35.4,94,62,23,29.89,29.85,7,0,7,0.00
2014-9-13,77.7,58.0,45.3,52.5,47.0,42.1,97,72,29,29.86,29.82,5,0,6,0.00
2014-9-14,73.0,55.9,44.6,55.9,48.3,43.1,97,79,40,29.85,29.82,4,0,5,0.00
2014-9-15,59.8,51.5,43.5,54.0,49.3,42.4,98,92,80,29.92,29.83,6,0,6,0.00
2014-9-16,69.0,60.0,52.7,58.4,55.2,51.3,97,85,64,29.93,29.82,8,0,8,0.00
2014-9-17,67.5,59.0,55.1,59.1,56.4,53.6,97,92,73,29.83,29.72,5,0,6,0.04
2014-9-18,71.3,60.9,54.9,63.2,57.7,53.5,98,90,65,30.01,29.73,5,0,7,0.04
2014-9-19,74.2,61.1,49.2,61.1,55.5,48.4,99,83,61,30.08,29.97,3,0,7,0.00
2014-9-20,83.0,61.8,50.8,62.2,55.9,49.9,99,84,46,30.00,29.82,7,0,8,0.00
2014-9-21,63.8,59.6,57.5,58.7,57.5,56.4,97,93,81,30.01,29.89,8,0,9,0.02
2014-9-22,67.1,61.2,58.1,59.9,57.5,56.3,95,88,72,30.03,29.90,3,0,6,0.02
2014-9-23,67.6,62.1,59.1,65.8,60.7,57.4,98,95,91,29.90,29.72,14,0,14,1.46
2014-9-24,67.5,61.0,58.3,61.1,58.4,56.9,98,92,74,29.88,29.78,8,0,9,0.48
2014-9-25,67.7,60.8,54.1,59.4,57.1,53.5,99,88,73,29.94,29.82,14,1,16,0.00
2014-9-26,68.5,61.2,55.0,60.2,56.7,53.3,97,85,70,30.07,29.93,7,0,9,0.00
2014-9-27,68.3,58.7,50.5,59.6,55.4,49.9,99,89,68,30.10,30.01,9,0,10,0.00
2014-9-28,68.6,57.3,48.1,59.4,53.5,47.3,99,88,62,30.01,29.93,6,0,8,0.00
2014-9-29,65.1,57.1,49.0,60.8,55.6,48.2,98,95,77,30.10,29.95,5,0,7,0.10
2014-9-30,67.3,58.9,51.2,59.7,55.4,50.1,99,89,68,30.21,30.09,7,0,8,0.09
2014-10-1,69.2,55.6,46.3,55.6,50.4,45.7,99,84,52,30.24,30.14,7,0,7,0.01
2014-10-2,73.5,57.0,45.0,54.7,50.2,44.2,99,81,47,30.22,30.16,6,0,6,0.00
2014-10-3,86.5,65.7,50.1,57.2,52.5,47.8,96,66,35,30.16,30.08,6,0,6,0.00
2014-10-4,83.0,64.1,50.6,58.3,54.3,49.2,97,74,39,30.13,30.04,3,0,4,0.00
2014-10-5,81.6,61.9,49.0,61.7,54.6,47.9,99,80,44,30.07,29.95,3,0,4,0.00
2014-10-6,80.8,63.1,51.0,63.6,56.4,50.1,99,82,51,29.98,29.86,3,0,5,0.00
2014-10-7,58.8,55.2,50.6,56.1,53.6,49.5,98,95,89,29.98,29.91,2,0,3,0.00
2014-10-8,62.2,56.5,54.4,58.8,55.1,53.3,98,95,87,30.03,29.96,3,0,3,0.01
2014-10-9,62.5,55.4,52.1,58.1,54.0,51.5,98,95,81,30.06,29.98,3,0,5,0.01
2014-10-10,63.7,57.3,53.5,56.7,54.6,52.1,98,91,76,30.14,30.04,4,0,4,0.00
2014-10-11,67.6,60.3,54.9,62.1,58.1,53.7,98,93,77,30.30,30.09,4,0,5,0.21
2014-10-12,71.8,58.3,49.5,58.1,53.5,48.3,99,86,56,30.30,30.00,4,0,5,0.00
2014-10-13,71.1,57.9,46.7,55.9,50.7,45.6,98,79,42,30.00,29.79,8,0,10,0.43
2014-10-14,58.4,55.9,53.1,57.8,55.1,52.1,98,97,94,29.88,29.54,5,0,5,1.00
2014-10-15,61.7,55.0,52.0,56.0,53.1,50.9,98,93,75,30.01,29.54,6,0,13,1.05
2014-10-16,69.6,57.1,49.5,54.6,51.0,48.4,97,82,50,30.01,29.78,8,0,8,0.00
2014-10-17,62.8,58.3,54.1,59.6,55.6,51.8,98,91,68,29.90,29.70,4,0,4,0.29
2014-10-18,70.7,62.5,59.3,64.0,60.1,58.1,98,92,70,29.97,29.82,6,0,6,0.59
2014-10-19,69.5,62.1,57.0,61.2,58.0,55.6,98,87,67,29.82,29.73,14,1,14,0.13
2014-10-20,62.7,57.8,55.1,58.6,55.5,52.5,98,92,79,29.90,29.74,11,0,11,0.39
2014-10-21,62.7,57.2,53.6,56.5,53.6,51.1,96,88,77,30.01,29.83,7,0,8,0.19
2014-10-22,59.3,57.0,55.4,58.2,55.9,53.3,98,96,91,29.85,29.73,10,1,10,2.98
2014-10-23,60.8,56.9,53.1,58.1,55.4,52.1,98,95,83,30.00,29.77,3,0,7,0.36
2014-10-24,54.5,52.8,51.6,53.6,51.8,50.8,98,96,92,30.00,29.60,7,0,8,0.40
2014-10-25,61.7,56.0,51.4,57.1,52.7,49.0,98,89,78,29.99,29.32,18,2,18,0.53
2014-10-26,60.3,54.8,48.3,53.0,49.8,47.1,97,84,62,30.19,29.99,9,1,9,0.01
2014-10-27,62.2,52.3,45.9,53.8,49.4,45.2,98,91,61,30.19,30.00,5,0,5,0.04
2014-10-28,62.2,58.0,50.5,58.3,54.2,48.6,97,88,73,30.08,29.93,11,1,11,0.50
2014-10-29,65.2,59.1,56.2,59.5,57.2,55.3,98,94,79,30.14,29.92,6,0,6,0.09
2014-10-30,62.0,57.8,55.6,60.4,56.8,55.0,98,97,92,29.94,29.75,9,0,9,0.48
2014-10-31,60.7,52.8,46.1,55.0,50.2,45.4,99,92,66,29.86,29.73,7,0,7,0.52
2014-11-1,57.0,47.9,42.4,52.8,46.7,41.8,99,96,82,30.14,29.82,4,0,4,0.13
2014-11-2,59.9,51.3,43.7,54.3,49.1,43.1,99,93,76,30.25,30.14,5,0,5,0.11
2014-11-3,59.9,55.4,52.6,57.2,54.1,51.1,98,95,89,30.23,30.15,4,0,4,0.56
2014-11-4,58.1,56.3,53.6,57.5,55.4,52.6,98,97,94,30.29,30.10,10,1,10,0.52
2014-11-5,67.2,58.8,54.2,61.7,57.5,53.9,99,96,80,30.28,30.00,5,0,5,0.01
2014-11-6,60.9,56.3,49.4,59.3,54.4,48.8,99,93,81,30.34,29.96,12,1,12,0.48
2014-11-7,63.2,49.8,42.4,53.8,47.0,41.6,99,91,63,30.42,30.28,5,0,5,0.01
2014-11-8,64.9,50.9,42.8,53.6,47.0,42.0,98,88,63,30.28,30.10,7,0,7,0.00
2014-11-9,55.2,49.3,44.4,54.7,48.4,43.8,99,97,90,30.13,30.02,6,0,6,0.15
2014-11-10,59.6,47.8,37.2,49.4,44.1,35.8,99,88,59,30.12,29.92,5,0,5,0.01
2014-11-11,60.4,47.5,37.0,38.2,33.6,24.8,97,61,37,29.99,29.89,6,0,6,0.00
2014-11-12,47.0,43.3,37.8,34.9,25.4,20.5,89,50,41,30.02,29.85,5,0,7,0.11
2014-11-13,58.8,49.5,35.6,56.9,48.3,34.2,99,96,90,29.91,29.74,8,1,13,1.77
2014-11-14,56.1,43.6,33.9,55.2,42.3,32.3,98,95,89,30.17,29.90,6,0,9,0.71
2014-11-15,47.9,38.6,33.7,36.0,32.0,24.4,94,78,58,30.34,30.16,6,0,6,0.01
2014-11-16,50.9,39.6,33.7,27.9,24.0,20.0,63,54,39,30.34,30.25,9,0,9,0.00
2014-11-17,54.8,42.0,35.2,31.1,27.1,23.6,65,56,39,30.30,30.08,8,0,8,0.00
2014-11-18,55.4,46.2,39.4,35.7,31.4,27.4,64,56,46,30.09,29.98,7,0,7,0.00
2014-11-19,55.4,49.3,45.0,53.9,40.1,30.6,98,73,50,29.99,29.81,6,0,6,0.27
2014-11-20,59.8,52.2,48.9,54.6,50.7,48.1,98,95,77,29.99,29.93,3,0,3,0.28
2014-11-21,58.2,52.9,47.1,57.6,51.6,46.3,98,95,88,29.94,29.58,21,1,21,1.03
2014-11-22,57.7,51.3,43.8,53.5,47.5,42.7,98,88,68,30.30,29.72,12,0,12,0.18
2014-11-23,58.2,50.9,44.9,52.7,48.7,44.3,99,93,78,30.36,30.30,6,0,12,0.09
2014-11-24,56.5,50.7,42.3,55.5,47.9,41.8,98,91,64,30.38,30.30,10,0,10,0.15
2014-11-25,58.3,56.3,53.4,56.9,55.4,52.4,98,97,93,30.42,30.30,8,0,8,0.06
2014-11-26,61.3,55.6,48.5,56.3,51.1,44.8,99,86,56,30.31,30.01,9,0,9,0.00
2014-11-27,59.9,54.7,51.8,54.8,51.2,47.8,98,88,67,30.03,29.82,11,0,11,0.74
2014-11-28,58.0,53.3,46.0,56.3,52.1,42.6,98,96,83,29.82,29.58,18,1,18,1.20
2014-11-29,48.2,42.7,32.7,43.5,36.9,31.6,97,81,63,30.00,29.70,8,0,8,0.06
2014-11-30,46.8,37.6,31.3,32.9,30.9,28.8,97,78,55,30.00,29.87,7,0,7,0.01
2014-12-1,44.3,41.6,38.7,43.5,39.0,31.3,97,91,72,30.08,30.00,6,0,6,0.50
2014-12-2,46.5,42.3,40.3,42.9,39.5,35.8,96,90,82,30.06,29.69,8,1,8,0.00
2014-12-3,48.4,43.9,40.8,42.5,38.7,35.8,95,82,70,29.73,29.64,7,0,7,0.09
2014-12-4,55.3,52.0,43.6,54.7,51.3,42.2,99,98,95,29.88,29.72,5,0,5,1.79
2014-12-5,58.5,54.0,51.9,54.8,52.6,51.3,99,95,85,29.89,29.71,12,0,12,0.44
2014-12-6,54.7,51.3,46.7,53.8,50.2,46.1,99,96,92,30.19,29.85,7,0,7,1.06
2014-12-7,58.7,51.9,45.6,50.6,46.8,43.6,98,83,70,30.15,29.93,5,0,5,0.00
2014-12-8,62.7,56.5,49.1,53.9,49.2,46.2,91,77,61,30.02,29.90,8,0,8,0.00
2014-12-9,64.0,59.2,57.1,57.6,55.4,50.8,97,88,64,29.97,29.73,11,1,11,0.70
2014-12-10,62.7,55.6,46.2,56.4,52.8,44.8,97,91,73,29.73,29.34,14,1,14,1.27
2014-12-11,59.1,51.4,46.5,52.2,48.8,45.4,98,91,71,29.66,29.02,22,1,22,0.91
2014-12-12,53.5,46.6,42.0,51.0,45.6,41.5,99,96,86,30.09,29.65,3,0,3,0.29
2014-12-13,54.1,44.4,40.6,49.2,42.9,39.4,99,95,78,30.22,30.09,2,0,3,0.05
2014-12-14,49.2,43.9,39.7,42.6,39.7,36.8,96,86,70,30.12,29.83,6,0,6,0.04
2014-12-15,47.5,45.6,43.3,46.3,43.8,41.8,97,93,82,29.85,29.76,3,0,3,0.30
2014-12-16,52.6,47.2,42.0,47.8,44.7,41.0,98,91,81,29.78,29.69,6,0,6,0.02
2014-12-17,52.6,47.2,44.8,50.3,45.0,42.0,98,92,82,29.97,29.72,12,0,12,0.38
2014-12-18,55.9,49.7,45.3,51.4,48.0,44.7,98,94,82,29.96,29.79,3,0,6,1.19
2014-12-19,53.7,48.7,45.7,49.6,47.1,44.6,97,94,84,30.02,29.88,7,0,7,1.11
2014-12-20,57.1,54.4,49.5,56.5,53.7,48.7,98,97,96,29.92,29.71,17,2,17,2.83
2014-12-21,56.8,54.4,51.4,56.2,53.9,50.9,99,98,97,30.21,29.92,12,1,12,0.91
2014-12-22,59.1,53.6,49.3,55.7,52.5,49.0,99,96,86,30.37,30.21,3,0,3,0.20
2014-12-23,56.2,54.6,53.4,55.9,54.1,52.8,99,98,97,30.32,30.04,4,0,4,0.04
2014-12-24,54.4,46.5,42.5,53.5,45.0,41.1,98,95,80,30.19,29.86,9,0,9,1.16
2014-12-25,50.9,45.1,42.0,46.7,43.4,40.8,98,94,82,30.32,30.17,6,0,6,0.21
2014-12-26,52.9,45.7,41.7,49.8,44.5,41.1,99,96,83,30.37,30.30,2,0,2,0.06
2014-12-27,50.2,44.3,39.6,49.4,43.1,38.6,99,96,87,30.35,30.27,6,0,6,0.34
2014-12-28,51.7,47.1,42.9,44.6,41.0,37.0,94,79,62,30.36,30.25,8,0,8,0.05
2014-12-29,48.7,43.0,33.7,41.8,36.4,23.5,89,77,65,30.50,30.19,10,0,10,0.03
2014-12-30,41.1,33.4,28.8,24.2,19.9,16.8,76,58,41,30.64,30.50,7,0,7,0.00
2014-12-31,43.2,32.4,26.9,22.5,18.8,15.7,70,58,38,30.60,30.30,3,0,5,0.00
2015-1-1,47.5,36.3,29.7,28.0,22.9,18.4,69,58,44,30.30,30.16,5,0,5,0.00
2015-1-2,50.8,39.3,30.9,42.7,32.7,24.1,92,78,62,30.26,30.17,3,0,3,0.00